Siem Pilot — LCPF — position and weather

sailwx.info

Track history (hours):
 
Tides and Currents Weather Stations Pressure Air Temp Water Temp Dewpoint Dewpoint Depression Visibility Wind Speed Wind Dir Waves Ship Positions

Siem Pilot

Last reported at 2017-Mar-23 15:33 UTC. Time now 2017-Mar-24 04:12 UTC.
Position N 39°03' E 009°14'.

Length 88 m; draft 5.5 m.

Type: Law enforcement. MMSI: 257458000.

Date/timePositionNaut miles runAvg speedWind from/ knotsBaromVisibWave heightAir tempDewpointWater temp
2017-Mar-23 15:33N 39°03' E 009°14'1110.8
2017-Mar-23 14:33N 39°12' E 009°07'0 0.1
2017-Mar-23 13:33N 39°12' E 009°07'0 0.0
2017-Mar-23 12:33N 39°12' E 009°07'0 0.0
2017-Mar-23 11:33N 39°12' E 009°07'0 0.0
2017-Mar-23 10:33N 39°12' E 009°07'0 0.0
2017-Mar-23 09:33N 39°12' E 009°07'0 0.0
2017-Mar-23 08:33N 39°12' E 009°07'1 0.6
2017-Mar-23 07:33N 39°12' E 009°07'1 0.5
2017-Mar-23 06:32N 39°11' E 009°07'4 3.7
2017-Mar-23 05:33N 39°08' E 009°09'1110.6
2017-Mar-23 04:32N 38°60' E 009°18'  
2017-Mar-20 10:23N 34°07' E 015°02'1113.5
2017-Mar-20 09:33N 34°11' E 015°15'1313.5
2017-Mar-20 08:33N 34°17' E 015°30'10 4.3
2017-Mar-20 06:09N 34°21' E 015°41'911.5
2017-Mar-20 05:24N 34°25' E 015°51'1214.3
2017-Mar-20 04:33N 34°31' E 016°04'2713.4
2017-Mar-20 02:31N 34°43' E 016°33'1313.5
2017-Mar-20 01:32N 34°49' E 016°48'1313.0
2017-Mar-20 00:33N 34°55' E 017°01'1313.0
2017-Mar-19 23:33N 35°01' E 017°16'1312.8
2017-Mar-19 22:33N 35°06' E 017°30'1312.6
2017-Mar-19 21:33N 35°12' E 017°44'1212.3
2017-Mar-19 20:32N 35°18' E 017°57'  
Track history (hours):
 
Tides and Currents Weather Stations Pressure Air Temp Water Temp Dewpoint Dewpoint Depression Visibility Wind Speed Wind Dir Waves Ship Positions

Siem Pilot

Last reported at 2017-Mar-23 15:33 UTC. Time now 2017-Mar-24 04:12 UTC.
Position N 39°03' E 009°14'.

Length 88 m; draft 5.5 m.

Type: Law enforcement. MMSI: 257458000.

Date/timePositionNaut miles runAvg speedWind from/ knotsBaromVisibWave heightAir tempDewpointWater temp
2017-Mar-23 15:33N 39°03' E 009°14'1110.8
2017-Mar-23 14:33N 39°12' E 009°07'0 0.1
2017-Mar-23 13:33N 39°12' E 009°07'0 0.0
2017-Mar-23 12:33N 39°12' E 009°07'0 0.0
2017-Mar-23 11:33N 39°12' E 009°07'0 0.0
2017-Mar-23 10:33N 39°12' E 009°07'0 0.0
2017-Mar-23 09:33N 39°12' E 009°07'0 0.0
2017-Mar-23 08:33N 39°12' E 009°07'1 0.6
2017-Mar-23 07:33N 39°12' E 009°07'1 0.5
2017-Mar-23 06:32N 39°11' E 009°07'4 3.7
2017-Mar-23 05:33N 39°08' E 009°09'1110.6
2017-Mar-23 04:32N 38°60' E 009°18'  
2017-Mar-20 10:23N 34°07' E 015°02'1113.5
2017-Mar-20 09:33N 34°11' E 015°15'1313.5
2017-Mar-20 08:33N 34°17' E 015°30'10 4.3
2017-Mar-20 06:09N 34°21' E 015°41'911.5
2017-Mar-20 05:24N 34°25' E 015°51'1214.3
2017-Mar-20 04:33N 34°31' E 016°04'2713.4
2017-Mar-20 02:31N 34°43' E 016°33'1313.5
2017-Mar-20 01:32N 34°49' E 016°48'1313.0
2017-Mar-20 00:33N 34°55' E 017°01'1313.0
2017-Mar-19 23:33N 35°01' E 017°16'1312.8
2017-Mar-19 22:33N 35°06' E 017°30'1312.6
2017-Mar-19 21:33N 35°12' E 017°44'1212.3
2017-Mar-19 20:32N 35°18' E 017°57'  

Dump ship's entire track history